sensor_id;sensor_type;location;lat;lon;timestamp;P1;durP1;ratioP1;P2;durP2;ratioP2
34282;SDS011;20542;49.828;8.746;2022-07-23T00:02:08;7.63;;;4.70;;
34282;SDS011;20542;49.828;8.746;2022-07-23T00:04:33;6.13;;;3.70;;
34282;SDS011;20542;49.828;8.746;2022-07-23T00:06:59;7.32;;;4.03;;
34282;SDS011;20542;49.828;8.746;2022-07-23T00:09:25;5.15;;;3.80;;
34282;SDS011;20542;49.828;8.746;2022-07-23T00:11:51;6.35;;;3.70;;
34282;SDS011;20542;49.828;8.746;2022-07-23T00:14:16;6.20;;;4.22;;
34282;SDS011;20542;49.828;8.746;2022-07-23T00:16:42;7.65;;;3.92;;
34282;SDS011;20542;49.828;8.746;2022-07-23T00:19:08;7.57;;;4.32;;
34282;SDS011;20542;49.828;8.746;2022-07-23T00:21:33;5.43;;;4.25;;
34282;SDS011;20542;49.828;8.746;2022-07-23T00:23:59;6.80;;;4.65;;
34282;SDS011;20542;49.828;8.746;2022-07-23T00:26:24;5.10;;;4.00;;
34282;SDS011;20542;49.828;8.746;2022-07-23T00:28:50;5.72;;;3.70;;
34282;SDS011;20542;49.828;8.746;2022-07-23T00:31:15;7.40;;;3.95;;
34282;SDS011;20542;49.828;8.746;2022-07-23T00:33:41;6.85;;;3.65;;
34282;SDS011;20542;49.828;8.746;2022-07-23T00:36:07;6.45;;;4.20;;
34282;SDS011;20542;49.828;8.746;2022-07-23T00:38:32;7.43;;;4.45;;
34282;SDS011;20542;49.828;8.746;2022-07-23T00:40:58;12.32;;;4.90;;
34282;SDS011;20542;49.828;8.746;2022-07-23T00:43:24;7.57;;;4.03;;
34282;SDS011;20542;49.828;8.746;2022-07-23T00:45:50;7.32;;;4.47;;
34282;SDS011;20542;49.828;8.746;2022-07-23T00:48:15;9.35;;;5.03;;
34282;SDS011;20542;49.828;8.746;2022-07-23T00:50:42;12.45;;;4.80;;
34282;SDS011;20542;49.828;8.746;2022-07-23T00:53:07;12.68;;;4.78;;
34282;SDS011;20542;49.828;8.746;2022-07-23T00:55:34;6.47;;;4.63;;
34282;SDS011;20542;49.828;8.746;2022-07-23T00:57:59;6.50;;;4.80;;
34282;SDS011;20542;49.828;8.746;2022-07-23T01:00:27;5.43;;;4.43;;
34282;SDS011;20542;49.828;8.746;2022-07-23T01:02:54;7.75;;;5.38;;
34282;SDS011;20542;49.828;8.746;2022-07-23T01:05:19;7.65;;;4.65;;
34282;SDS011;20542;49.828;8.746;2022-07-23T01:07:48;6.03;;;4.50;;
34282;SDS011;20542;49.828;8.746;2022-07-23T01:10:14;8.27;;;5.00;;
34282;SDS011;20542;49.828;8.746;2022-07-23T01:13:02;9.25;;;4.85;;
34282;SDS011;20542;49.828;8.746;2022-07-23T01:15:30;12.05;;;4.55;;
34282;SDS011;20542;49.828;8.746;2022-07-23T01:17:57;9.38;;;4.18;;
34282;SDS011;20542;49.828;8.746;2022-07-23T01:20:23;7.82;;;4.78;;
34282;SDS011;20542;49.828;8.746;2022-07-23T01:22:49;6.18;;;4.40;;
34282;SDS011;20542;49.828;8.746;2022-07-23T01:25:15;6.38;;;4.30;;
34282;SDS011;20542;49.828;8.746;2022-07-23T01:27:41;5.88;;;4.28;;
34282;SDS011;20542;49.828;8.746;2022-07-23T01:30:07;5.67;;;3.73;;
34282;SDS011;20542;49.828;8.746;2022-07-23T01:32:33;6.97;;;4.23;;
34282;SDS011;20542;49.828;8.746;2022-07-23T01:34:58;6.72;;;4.47;;
34282;SDS011;20542;49.828;8.746;2022-07-23T01:37:24;7.40;;;4.10;;
34282;SDS011;20542;49.828;8.746;2022-07-23T01:39:50;9.27;;;4.82;;
34282;SDS011;20542;49.828;8.746;2022-07-23T01:42:15;6.68;;;4.53;;
34282;SDS011;20542;49.828;8.746;2022-07-23T01:44:41;5.97;;;4.32;;
34282;SDS011;20542;49.828;8.746;2022-07-23T01:47:06;7.68;;;4.15;;
34282;SDS011;20542;49.828;8.746;2022-07-23T01:49:32;7.22;;;4.88;;
34282;SDS011;20542;49.828;8.746;2022-07-23T01:51:58;6.45;;;4.35;;
34282;SDS011;20542;49.828;8.746;2022-07-23T01:54:30;6.95;;;4.53;;
34282;SDS011;20542;49.828;8.746;2022-07-23T01:56:56;4.55;;;3.67;;
34282;SDS011;20542;49.828;8.746;2022-07-23T01:59:22;7.00;;;4.80;;
34282;SDS011;20542;49.828;8.746;2022-07-23T02:01:48;6.13;;;4.65;;
34282;SDS011;20542;49.828;8.746;2022-07-23T02:04:16;7.78;;;5.05;;
34282;SDS011;20542;49.828;8.746;2022-07-23T02:06:45;8.68;;;4.82;;
34282;SDS011;20542;49.828;8.746;2022-07-23T02:09:11;6.10;;;3.97;;
34282;SDS011;20542;49.828;8.746;2022-07-23T02:11:37;11.80;;;4.45;;
34282;SDS011;20542;49.828;8.746;2022-07-23T02:14:02;6.07;;;4.15;;
34282;SDS011;20542;49.828;8.746;2022-07-23T02:16:28;7.18;;;4.50;;
34282;SDS011;20542;49.828;8.746;2022-07-23T02:18:54;6.82;;;3.75;;
34282;SDS011;20542;49.828;8.746;2022-07-23T02:21:20;6.40;;;4.32;;
34282;SDS011;20542;49.828;8.746;2022-07-23T02:23:45;5.57;;;4.40;;
34282;SDS011;20542;49.828;8.746;2022-07-23T02:26:11;6.65;;;4.63;;
34282;SDS011;20542;49.828;8.746;2022-07-23T02:28:36;5.93;;;4.30;;
34282;SDS011;20542;49.828;8.746;2022-07-23T02:31:02;9.07;;;4.60;;
34282;SDS011;20542;49.828;8.746;2022-07-23T02:33:28;6.33;;;4.53;;
34282;SDS011;20542;49.828;8.746;2022-07-23T02:35:54;5.65;;;4.25;;
34282;SDS011;20542;49.828;8.746;2022-07-23T02:38:19;5.28;;;4.18;;
34282;SDS011;20542;49.828;8.746;2022-07-23T02:40:45;7.93;;;4.95;;
34282;SDS011;20542;49.828;8.746;2022-07-23T02:43:11;7.05;;;4.22;;
34282;SDS011;20542;49.828;8.746;2022-07-23T02:45:36;7.53;;;4.72;;
34282;SDS011;20542;49.828;8.746;2022-07-23T02:48:02;6.28;;;4.88;;
34282;SDS011;20542;49.828;8.746;2022-07-23T02:50:27;9.00;;;5.45;;
34282;SDS011;20542;49.828;8.746;2022-07-23T02:52:53;8.85;;;4.57;;
34282;SDS011;20542;49.828;8.746;2022-07-23T02:55:19;6.88;;;5.05;;
34282;SDS011;20542;49.828;8.746;2022-07-23T02:57:44;10.57;;;5.75;;
34282;SDS011;20542;49.828;8.746;2022-07-23T03:00:10;6.97;;;4.93;;
34282;SDS011;20542;49.828;8.746;2022-07-23T03:02:36;9.98;;;5.43;;
34282;SDS011;20542;49.828;8.746;2022-07-23T03:05:01;7.90;;;4.85;;
34282;SDS011;20542;49.828;8.746;2022-07-23T03:07:27;8.77;;;4.85;;
34282;SDS011;20542;49.828;8.746;2022-07-23T03:09:53;9.13;;;4.60;;
34282;SDS011;20542;49.828;8.746;2022-07-23T03:12:18;7.88;;;5.00;;
34282;SDS011;20542;49.828;8.746;2022-07-23T03:14:44;6.88;;;5.15;;
34282;SDS011;20542;49.828;8.746;2022-07-23T03:17:10;10.32;;;4.35;;
34282;SDS011;20542;49.828;8.746;2022-07-23T03:19:35;7.25;;;4.68;;
34282;SDS011;20542;49.828;8.746;2022-07-23T03:22:02;6.63;;;5.22;;
34282;SDS011;20542;49.828;8.746;2022-07-23T03:24:28;7.45;;;4.72;;
34282;SDS011;20542;49.828;8.746;2022-07-23T03:27:13;9.77;;;5.28;;
34282;SDS011;20542;49.828;8.746;2022-07-23T03:29:39;7.70;;;5.13;;
34282;SDS011;20542;49.828;8.746;2022-07-23T03:32:05;8.23;;;5.32;;
34282;SDS011;20542;49.828;8.746;2022-07-23T03:34:31;10.50;;;4.70;;
34282;SDS011;20542;49.828;8.746;2022-07-23T03:36:56;12.15;;;5.13;;
34282;SDS011;20542;49.828;8.746;2022-07-23T03:39:22;8.63;;;5.78;;
34282;SDS011;20542;49.828;8.746;2022-07-23T03:41:47;7.63;;;5.20;;
34282;SDS011;20542;49.828;8.746;2022-07-23T03:44:13;9.35;;;5.30;;
34282;SDS011;20542;49.828;8.746;2022-07-23T03:46:39;9.25;;;5.03;;
34282;SDS011;20542;49.828;8.746;2022-07-23T03:49:04;11.65;;;5.75;;
34282;SDS011;20542;49.828;8.746;2022-07-23T03:51:30;8.95;;;6.00;;
34282;SDS011;20542;49.828;8.746;2022-07-23T03:53:55;9.68;;;5.57;;
34282;SDS011;20542;49.828;8.746;2022-07-23T03:56:21;8.25;;;5.45;;
34282;SDS011;20542;49.828;8.746;2022-07-23T03:58:47;10.88;;;5.93;;
34282;SDS011;20542;49.828;8.746;2022-07-23T04:01:12;8.68;;;5.57;;
34282;SDS011;20542;49.828;8.746;2022-07-23T04:03:38;8.02;;;5.25;;
34282;SDS011;20542;49.828;8.746;2022-07-23T04:06:04;10.40;;;5.80;;
34282;SDS011;20542;49.828;8.746;2022-07-23T04:08:30;7.97;;;5.72;;
34282;SDS011;20542;49.828;8.746;2022-07-23T04:10:56;7.85;;;5.15;;
34282;SDS011;20542;49.828;8.746;2022-07-23T04:13:22;9.05;;;6.18;;
34282;SDS011;20542;49.828;8.746;2022-07-23T04:15:47;7.57;;;5.72;;
34282;SDS011;20542;49.828;8.746;2022-07-23T04:18:13;9.90;;;5.45;;
34282;SDS011;20542;49.828;8.746;2022-07-23T04:20:39;11.07;;;6.15;;
34282;SDS011;20542;49.828;8.746;2022-07-23T04:23:04;7.90;;;5.60;;
34282;SDS011;20542;49.828;8.746;2022-07-23T04:25:30;9.77;;;5.32;;
34282;SDS011;20542;49.828;8.746;2022-07-23T04:27:55;9.65;;;5.85;;
34282;SDS011;20542;49.828;8.746;2022-07-23T04:30:21;11.68;;;5.50;;
34282;SDS011;20542;49.828;8.746;2022-07-23T04:32:46;8.48;;;5.50;;
34282;SDS011;20542;49.828;8.746;2022-07-23T04:35:12;8.32;;;4.97;;
34282;SDS011;20542;49.828;8.746;2022-07-23T04:37:37;8.90;;;5.70;;
34282;SDS011;20542;49.828;8.746;2022-07-23T04:40:03;7.13;;;5.20;;
34282;SDS011;20542;49.828;8.746;2022-07-23T04:42:29;9.67;;;6.07;;
34282;SDS011;20542;49.828;8.746;2022-07-23T04:44:55;8.05;;;5.05;;
34282;SDS011;20542;49.828;8.746;2022-07-23T04:47:21;7.50;;;5.13;;
34282;SDS011;20542;49.828;8.746;2022-07-23T04:49:47;9.10;;;5.43;;
34282;SDS011;20542;49.828;8.746;2022-07-23T04:52:12;9.02;;;5.70;;
34282;SDS011;20542;49.828;8.746;2022-07-23T04:54:40;7.53;;;5.15;;
34282;SDS011;20542;49.828;8.746;2022-07-23T04:57:05;9.73;;;5.68;;
34282;SDS011;20542;49.828;8.746;2022-07-23T04:59:31;9.40;;;5.28;;
34282;SDS011;20542;49.828;8.746;2022-07-23T05:01:57;8.57;;;5.50;;
34282;SDS011;20542;49.828;8.746;2022-07-23T05:04:22;8.30;;;5.53;;
34282;SDS011;20542;49.828;8.746;2022-07-23T05:06:48;11.65;;;5.85;;
34282;SDS011;20542;49.828;8.746;2022-07-23T05:09:13;9.25;;;5.47;;
34282;SDS011;20542;49.828;8.746;2022-07-23T05:11:39;7.90;;;5.30;;
34282;SDS011;20542;49.828;8.746;2022-07-23T05:14:04;11.20;;;5.82;;
34282;SDS011;20542;49.828;8.746;2022-07-23T05:16:30;8.52;;;5.07;;
34282;SDS011;20542;49.828;8.746;2022-07-23T05:18:56;11.82;;;5.00;;
34282;SDS011;20542;49.828;8.746;2022-07-23T05:21:21;8.07;;;5.47;;
34282;SDS011;20542;49.828;8.746;2022-07-23T05:23:47;9.00;;;5.72;;
34282;SDS011;20542;49.828;8.746;2022-07-23T05:26:12;10.23;;;6.15;;
34282;SDS011;20542;49.828;8.746;2022-07-23T05:28:38;8.73;;;5.65;;
34282;SDS011;20542;49.828;8.746;2022-07-23T05:31:04;9.80;;;5.80;;
34282;SDS011;20542;49.828;8.746;2022-07-23T05:33:29;9.48;;;5.43;;
34282;SDS011;20542;49.828;8.746;2022-07-23T05:36:02;12.02;;;5.68;;
34282;SDS011;20542;49.828;8.746;2022-07-23T05:38:29;12.82;;;6.28;;
34282;SDS011;20542;49.828;8.746;2022-07-23T05:40:55;10.20;;;6.00;;
34282;SDS011;20542;49.828;8.746;2022-07-23T05:43:20;11.95;;;6.18;;
34282;SDS011;20542;49.828;8.746;2022-07-23T05:45:46;13.23;;;5.55;;
34282;SDS011;20542;49.828;8.746;2022-07-23T05:48:12;7.78;;;5.50;;
34282;SDS011;20542;49.828;8.746;2022-07-23T05:50:37;11.13;;;5.45;;
34282;SDS011;20542;49.828;8.746;2022-07-23T05:53:03;10.50;;;5.60;;
34282;SDS011;20542;49.828;8.746;2022-07-23T05:55:29;9.32;;;5.32;;
34282;SDS011;20542;49.828;8.746;2022-07-23T05:57:56;10.10;;;5.88;;
34282;SDS011;20542;49.828;8.746;2022-07-23T06:00:23;14.73;;;6.37;;
34282;SDS011;20542;49.828;8.746;2022-07-23T06:02:49;8.30;;;5.72;;
34282;SDS011;20542;49.828;8.746;2022-07-23T06:05:15;9.15;;;5.70;;
34282;SDS011;20542;49.828;8.746;2022-07-23T06:07:41;7.22;;;5.03;;
34282;SDS011;20542;49.828;8.746;2022-07-23T06:10:06;11.20;;;5.95;;
34282;SDS011;20542;49.828;8.746;2022-07-23T06:12:33;6.97;;;5.23;;
34282;SDS011;20542;49.828;8.746;2022-07-23T06:14:59;7.75;;;5.53;;
34282;SDS011;20542;49.828;8.746;2022-07-23T06:17:24;8.57;;;5.45;;
34282;SDS011;20542;49.828;8.746;2022-07-23T06:19:50;10.98;;;5.90;;
34282;SDS011;20542;49.828;8.746;2022-07-23T06:22:15;8.60;;;5.65;;
34282;SDS011;20542;49.828;8.746;2022-07-23T06:24:41;12.25;;;5.35;;
34282;SDS011;20542;49.828;8.746;2022-07-23T06:27:07;8.77;;;6.13;;
34282;SDS011;20542;49.828;8.746;2022-07-23T06:29:32;10.77;;;5.32;;
34282;SDS011;20542;49.828;8.746;2022-07-23T06:31:58;8.75;;;6.00;;
34282;SDS011;20542;49.828;8.746;2022-07-23T06:34:24;8.27;;;5.80;;
34282;SDS011;20542;49.828;8.746;2022-07-23T06:36:49;6.63;;;5.32;;
34282;SDS011;20542;49.828;8.746;2022-07-23T06:39:15;9.10;;;5.80;;
34282;SDS011;20542;49.828;8.746;2022-07-23T06:41:40;10.35;;;5.97;;
34282;SDS011;20542;49.828;8.746;2022-07-23T06:44:07;10.30;;;6.53;;
34282;SDS011;20542;49.828;8.746;2022-07-23T06:46:32;10.43;;;5.60;;
34282;SDS011;20542;49.828;8.746;2022-07-23T06:48:58;8.68;;;5.13;;
34282;SDS011;20542;49.828;8.746;2022-07-23T06:51:24;9.00;;;5.38;;
34282;SDS011;20542;49.828;8.746;2022-07-23T06:53:50;9.25;;;6.22;;
34282;SDS011;20542;49.828;8.746;2022-07-23T06:56:15;8.80;;;5.68;;
34282;SDS011;20542;49.828;8.746;2022-07-23T06:58:41;10.25;;;5.95;;
34282;SDS011;20542;49.828;8.746;2022-07-23T07:01:06;12.85;;;6.28;;
34282;SDS011;20542;49.828;8.746;2022-07-23T07:03:32;8.85;;;5.22;;
34282;SDS011;20542;49.828;8.746;2022-07-23T07:05:58;9.77;;;5.05;;
34282;SDS011;20542;49.828;8.746;2022-07-23T07:08:23;8.00;;;5.05;;
34282;SDS011;20542;49.828;8.746;2022-07-23T07:10:49;10.77;;;5.18;;
34282;SDS011;20542;49.828;8.746;2022-07-23T07:13:15;7.50;;;4.80;;
34282;SDS011;20542;49.828;8.746;2022-07-23T07:15:40;9.73;;;5.35;;
34282;SDS011;20542;49.828;8.746;2022-07-23T07:18:06;7.38;;;5.03;;
34282;SDS011;20542;49.828;8.746;2022-07-23T07:20:31;6.28;;;5.13;;
34282;SDS011;20542;49.828;8.746;2022-07-23T07:22:57;15.23;;;5.13;;
34282;SDS011;20542;49.828;8.746;2022-07-23T07:25:22;10.57;;;5.75;;
34282;SDS011;20542;49.828;8.746;2022-07-23T07:27:48;7.90;;;5.38;;
34282;SDS011;20542;49.828;8.746;2022-07-23T07:30:14;7.35;;;5.30;;
34282;SDS011;20542;49.828;8.746;2022-07-23T07:32:39;7.38;;;4.95;;
34282;SDS011;20542;49.828;8.746;2022-07-23T07:35:05;7.22;;;5.25;;
34282;SDS011;20542;49.828;8.746;2022-07-23T07:37:31;7.33;;;4.93;;
34282;SDS011;20542;49.828;8.746;2022-07-23T07:39:57;7.50;;;4.70;;
34282;SDS011;20542;49.828;8.746;2022-07-23T07:42:22;7.82;;;4.85;;
34282;SDS011;20542;49.828;8.746;2022-07-23T07:44:48;7.80;;;5.07;;
34282;SDS011;20542;49.828;8.746;2022-07-23T07:47:14;8.68;;;4.75;;
34282;SDS011;20542;49.828;8.746;2022-07-23T07:49:40;9.38;;;4.45;;
34282;SDS011;20542;49.828;8.746;2022-07-23T07:52:07;11.50;;;4.97;;
34282;SDS011;20542;49.828;8.746;2022-07-23T07:54:32;8.27;;;5.57;;
34282;SDS011;20542;49.828;8.746;2022-07-23T07:56:58;8.10;;;5.30;;
34282;SDS011;20542;49.828;8.746;2022-07-23T07:59:24;5.72;;;4.22;;
34282;SDS011;20542;49.828;8.746;2022-07-23T08:01:50;6.80;;;4.88;;
34282;SDS011;20542;49.828;8.746;2022-07-23T08:04:16;7.28;;;5.18;;
34282;SDS011;20542;49.828;8.746;2022-07-23T08:06:41;7.35;;;5.20;;
34282;SDS011;20542;49.828;8.746;2022-07-23T08:09:07;6.43;;;4.63;;
34282;SDS011;20542;49.828;8.746;2022-07-23T08:11:32;5.85;;;4.35;;
34282;SDS011;20542;49.828;8.746;2022-07-23T08:13:58;6.75;;;4.90;;
34282;SDS011;20542;49.828;8.746;2022-07-23T08:16:23;11.07;;;5.22;;
34282;SDS011;20542;49.828;8.746;2022-07-23T08:18:49;8.90;;;4.50;;
34282;SDS011;20542;49.828;8.746;2022-07-23T08:21:15;8.02;;;4.68;;
34282;SDS011;20542;49.828;8.746;2022-07-23T08:23:40;6.40;;;4.70;;
34282;SDS011;20542;49.828;8.746;2022-07-23T08:26:06;9.25;;;5.07;;
34282;SDS011;20542;49.828;8.746;2022-07-23T08:28:32;5.82;;;4.47;;
34282;SDS011;20542;49.828;8.746;2022-07-23T08:30:58;6.20;;;4.40;;
34282;SDS011;20542;49.828;8.746;2022-07-23T08:33:23;6.93;;;5.00;;
34282;SDS011;20542;49.828;8.746;2022-07-23T08:35:50;11.40;;;4.35;;
34282;SDS011;20542;49.828;8.746;2022-07-23T08:38:18;9.13;;;4.88;;
34282;SDS011;20542;49.828;8.746;2022-07-23T08:40:46;7.78;;;5.10;;
34282;SDS011;20542;49.828;8.746;2022-07-23T08:43:20;4.97;;;3.78;;
34282;SDS011;20542;49.828;8.746;2022-07-23T08:45:48;7.28;;;4.65;;
34282;SDS011;20542;49.828;8.746;2022-07-23T08:48:20;6.45;;;4.45;;
34282;SDS011;20542;49.828;8.746;2022-07-23T08:50:48;5.70;;;4.68;;
34282;SDS011;20542;49.828;8.746;2022-07-23T08:53:16;8.23;;;4.68;;
34282;SDS011;20542;49.828;8.746;2022-07-23T08:55:44;7.85;;;4.90;;
34282;SDS011;20542;49.828;8.746;2022-07-23T08:58:10;10.77;;;4.45;;
34282;SDS011;20542;49.828;8.746;2022-07-23T09:00:36;12.25;;;4.68;;
34282;SDS011;20542;49.828;8.746;2022-07-23T09:03:02;9.38;;;4.93;;
34282;SDS011;20542;49.828;8.746;2022-07-23T09:05:28;8.63;;;4.80;;
34282;SDS011;20542;49.828;8.746;2022-07-23T09:08:04;6.20;;;4.15;;
34282;SDS011;20542;49.828;8.746;2022-07-23T09:13:24;6.60;;;4.80;;
34282;SDS011;20542;49.828;8.746;2022-07-23T09:15:54;9.05;;;5.07;;
34282;SDS011;20542;49.828;8.746;2022-07-23T09:18:35;6.55;;;5.00;;
34282;SDS011;20542;49.828;8.746;2022-07-23T09:21:14;6.68;;;4.40;;
34282;SDS011;20542;49.828;8.746;2022-07-23T09:26:48;5.47;;;4.35;;
34282;SDS011;20542;49.828;8.746;2022-07-23T09:29:18;7.65;;;4.97;;
34282;SDS011;20542;49.828;8.746;2022-07-23T09:36:48;6.78;;;5.18;;
34282;SDS011;20542;49.828;8.746;2022-07-23T09:39:16;6.78;;;4.40;;
34282;SDS011;20542;49.828;8.746;2022-07-23T09:41:57;5.90;;;4.22;;
34282;SDS011;20542;49.828;8.746;2022-07-23T09:44:40;6.47;;;4.20;;
34282;SDS011;20542;49.828;8.746;2022-07-23T09:47:07;7.72;;;4.60;;
34282;SDS011;20542;49.828;8.746;2022-07-23T09:49:33;6.20;;;4.72;;
34282;SDS011;20542;49.828;8.746;2022-07-23T09:51:59;8.80;;;5.05;;
34282;SDS011;20542;49.828;8.746;2022-07-23T09:54:33;5.82;;;4.78;;
34282;SDS011;20542;49.828;8.746;2022-07-23T09:57:05;6.60;;;4.80;;
34282;SDS011;20542;49.828;8.746;2022-07-23T09:59:38;5.95;;;5.10;;
34282;SDS011;20542;49.828;8.746;2022-07-23T10:02:06;8.60;;;4.70;;
34282;SDS011;20542;49.828;8.746;2022-07-23T10:04:33;7.32;;;4.78;;
34282;SDS011;20542;49.828;8.746;2022-07-23T10:07:01;5.25;;;4.45;;
34282;SDS011;20542;49.828;8.746;2022-07-23T10:09:38;4.63;;;4.13;;
34282;SDS011;20542;49.828;8.746;2022-07-23T10:12:08;8.07;;;4.93;;
34282;SDS011;20542;49.828;8.746;2022-07-23T10:17:08;6.68;;;4.35;;
34282;SDS011;20542;49.828;8.746;2022-07-23T10:19:34;5.07;;;4.13;;
34282;SDS011;20542;49.828;8.746;2022-07-23T10:24:30;5.53;;;4.78;;
34282;SDS011;20542;49.828;8.746;2022-07-23T10:30:07;7.00;;;4.28;;
34282;SDS011;20542;49.828;8.746;2022-07-23T10:40:55;9.25;;;4.80;;
34282;SDS011;20542;49.828;8.746;2022-07-23T10:43:26;9.02;;;4.72;;
34282;SDS011;20542;49.828;8.746;2022-07-23T10:45:53;7.22;;;4.53;;
34282;SDS011;20542;49.828;8.746;2022-07-23T10:48:20;6.40;;;4.70;;
34282;SDS011;20542;49.828;8.746;2022-07-23T10:51:06;7.15;;;4.32;;
34282;SDS011;20542;49.828;8.746;2022-07-23T10:59:19;6.95;;;4.22;;
34282;SDS011;20542;49.828;8.746;2022-07-23T11:01:45;7.35;;;5.13;;
34282;SDS011;20542;49.828;8.746;2022-07-23T11:04:11;6.60;;;4.88;;
34282;SDS011;20542;49.828;8.746;2022-07-23T11:09:28;8.38;;;5.15;;
34282;SDS011;20542;49.828;8.746;2022-07-23T11:17:23;10.90;;;5.53;;
34282;SDS011;20542;49.828;8.746;2022-07-23T11:20:24;6.38;;;4.32;;
34282;SDS011;20542;49.828;8.746;2022-07-23T11:27:46;7.13;;;5.03;;
34282;SDS011;20542;49.828;8.746;2022-07-23T11:32:54;6.05;;;4.32;;
34282;SDS011;20542;49.828;8.746;2022-07-23T11:35:32;10.50;;;5.05;;
34282;SDS011;20542;49.828;8.746;2022-07-23T11:38:11;8.47;;;5.00;;
34282;SDS011;20542;49.828;8.746;2022-07-23T11:40:48;7.85;;;5.18;;
34282;SDS011;20542;49.828;8.746;2022-07-23T11:43:16;7.63;;;5.15;;
34282;SDS011;20542;49.828;8.746;2022-07-23T11:45:43;7.33;;;4.73;;
34282;SDS011;20542;49.828;8.746;2022-07-23T11:48:17;7.10;;;4.85;;
34282;SDS011;20542;49.828;8.746;2022-07-23T11:50:47;8.10;;;5.35;;
34282;SDS011;20542;49.828;8.746;2022-07-23T11:53:20;6.70;;;4.93;;
34282;SDS011;20542;49.828;8.746;2022-07-23T11:56:07;8.63;;;5.32;;
34282;SDS011;20542;49.828;8.746;2022-07-23T11:58:35;8.05;;;4.47;;
34282;SDS011;20542;49.828;8.746;2022-07-23T12:01:00;8.60;;;5.05;;
34282;SDS011;20542;49.828;8.746;2022-07-23T12:03:26;9.50;;;5.00;;
34282;SDS011;20542;49.828;8.746;2022-07-23T12:05:56;6.65;;;4.60;;
34282;SDS011;20542;49.828;8.746;2022-07-23T12:08:23;7.40;;;4.90;;
34282;SDS011;20542;49.828;8.746;2022-07-23T12:10:48;7.40;;;4.65;;
34282;SDS011;20542;49.828;8.746;2022-07-23T12:13:15;7.05;;;4.15;;
34282;SDS011;20542;49.828;8.746;2022-07-23T12:15:50;4.85;;;4.18;;
34282;SDS011;20542;49.828;8.746;2022-07-23T12:18:19;7.03;;;4.90;;
34282;SDS011;20542;49.828;8.746;2022-07-23T12:20:50;5.88;;;4.28;;
34282;SDS011;20542;49.828;8.746;2022-07-23T12:23:18;6.45;;;4.70;;
34282;SDS011;20542;49.828;8.746;2022-07-23T12:25:45;6.20;;;4.68;;
34282;SDS011;20542;49.828;8.746;2022-07-23T12:28:15;7.70;;;4.60;;
34282;SDS011;20542;49.828;8.746;2022-07-23T12:30:46;9.77;;;4.72;;
34282;SDS011;20542;49.828;8.746;2022-07-23T12:35:55;5.75;;;4.50;;
34282;SDS011;20542;49.828;8.746;2022-07-23T12:38:23;6.55;;;4.50;;
34282;SDS011;20542;49.828;8.746;2022-07-23T12:40:54;7.00;;;4.80;;
34282;SDS011;20542;49.828;8.746;2022-07-23T12:43:22;5.25;;;4.40;;
34282;SDS011;20542;49.828;8.746;2022-07-23T12:45:52;8.43;;;5.07;;
34282;SDS011;20542;49.828;8.746;2022-07-23T12:48:25;6.25;;;4.97;;
34282;SDS011;20542;49.828;8.746;2022-07-23T12:50:58;6.53;;;4.50;;
34282;SDS011;20542;49.828;8.746;2022-07-23T12:53:26;5.72;;;5.03;;
34282;SDS011;20542;49.828;8.746;2022-07-23T12:56:04;8.05;;;4.75;;
34282;SDS011;20542;49.828;8.746;2022-07-23T12:58:44;6.70;;;4.88;;
34282;SDS011;20542;49.828;8.746;2022-07-23T13:04:29;5.43;;;4.28;;
34282;SDS011;20542;49.828;8.746;2022-07-23T13:06:38;6.00;;;4.40;;
34282;SDS011;20542;49.828;8.746;2022-07-23T13:09:05;6.28;;;4.43;;
34282;SDS011;20542;49.828;8.746;2022-07-23T13:11:33;7.72;;;4.03;;
34282;SDS011;20542;49.828;8.746;2022-07-23T13:14:00;5.82;;;4.65;;
34282;SDS011;20542;49.828;8.746;2022-07-23T13:16:29;6.35;;;4.35;;
34282;SDS011;20542;49.828;8.746;2022-07-23T13:18:56;6.85;;;4.30;;
34282;SDS011;20542;49.828;8.746;2022-07-23T13:21:22;9.27;;;4.97;;
34282;SDS011;20542;49.828;8.746;2022-07-23T13:23:48;7.13;;;4.25;;
34282;SDS011;20542;49.828;8.746;2022-07-23T13:26:14;5.77;;;4.40;;
34282;SDS011;20542;49.828;8.746;2022-07-23T13:28:40;5.77;;;4.20;;
34282;SDS011;20542;49.828;8.746;2022-07-23T13:31:06;8.97;;;4.47;;
34282;SDS011;20542;49.828;8.746;2022-07-23T13:33:32;5.10;;;4.38;;
34282;SDS011;20542;49.828;8.746;2022-07-23T13:35:58;7.40;;;4.13;;
34282;SDS011;20542;49.828;8.746;2022-07-23T13:38:24;7.25;;;4.90;;
34282;SDS011;20542;49.828;8.746;2022-07-23T13:40:50;5.43;;;4.68;;
34282;SDS011;20542;49.828;8.746;2022-07-23T13:43:18;7.03;;;4.75;;
34282;SDS011;20542;49.828;8.746;2022-07-23T13:45:45;5.95;;;4.55;;
34282;SDS011;20542;49.828;8.746;2022-07-23T13:48:12;8.85;;;5.28;;
34282;SDS011;20542;49.828;8.746;2022-07-23T13:50:38;6.50;;;4.55;;
34282;SDS011;20542;49.828;8.746;2022-07-23T13:53:07;8.60;;;4.65;;
34282;SDS011;20542;49.828;8.746;2022-07-23T13:55:35;8.30;;;4.68;;
34282;SDS011;20542;49.828;8.746;2022-07-23T14:00:28;7.37;;;4.17;;
34282;SDS011;20542;49.828;8.746;2022-07-23T14:02:58;8.02;;;4.57;;
34282;SDS011;20542;49.828;8.746;2022-07-23T14:05:25;9.07;;;4.10;;
34282;SDS011;20542;49.828;8.746;2022-07-23T14:07:51;6.47;;;4.37;;
34282;SDS011;20542;49.828;8.746;2022-07-23T14:10:19;5.63;;;4.63;;
34282;SDS011;20542;49.828;8.746;2022-07-23T14:12:46;7.20;;;5.05;;
34282;SDS011;20542;49.828;8.746;2022-07-23T14:15:13;6.63;;;4.72;;
34282;SDS011;20542;49.828;8.746;2022-07-23T14:17:39;11.60;;;4.40;;
34282;SDS011;20542;49.828;8.746;2022-07-23T14:20:07;6.43;;;4.55;;
34282;SDS011;20542;49.828;8.746;2022-07-23T14:22:34;8.65;;;4.22;;
34282;SDS011;20542;49.828;8.746;2022-07-23T14:25:00;7.40;;;4.50;;
34282;SDS011;20542;49.828;8.746;2022-07-23T14:27:26;6.28;;;4.80;;
34282;SDS011;20542;49.828;8.746;2022-07-23T14:32:18;7.57;;;4.20;;
34282;SDS011;20542;49.828;8.746;2022-07-23T14:34:44;5.07;;;4.17;;
34282;SDS011;20542;49.828;8.746;2022-07-23T14:37:10;7.73;;;4.40;;
34282;SDS011;20542;49.828;8.746;2022-07-23T14:39:36;8.85;;;4.38;;
34282;SDS011;20542;49.828;8.746;2022-07-23T14:42:03;7.55;;;4.97;;
34282;SDS011;20542;49.828;8.746;2022-07-23T14:44:29;6.68;;;4.00;;
34282;SDS011;20542;49.828;8.746;2022-07-23T14:46:55;7.72;;;4.68;;
34282;SDS011;20542;49.828;8.746;2022-07-23T14:49:20;7.73;;;4.37;;
34282;SDS011;20542;49.828;8.746;2022-07-23T14:51:46;5.97;;;4.43;;
34282;SDS011;20542;49.828;8.746;2022-07-23T14:54:12;7.38;;;5.35;;
34282;SDS011;20542;49.828;8.746;2022-07-23T14:56:38;5.28;;;4.75;;
34282;SDS011;20542;49.828;8.746;2022-07-23T14:59:05;6.97;;;4.15;;
34282;SDS011;20542;49.828;8.746;2022-07-23T15:01:31;5.73;;;4.47;;
34282;SDS011;20542;49.828;8.746;2022-07-23T15:03:57;7.07;;;4.73;;
34282;SDS011;20542;49.828;8.746;2022-07-23T15:06:23;7.18;;;3.72;;
34282;SDS011;20542;49.828;8.746;2022-07-23T15:08:49;7.53;;;4.50;;
34282;SDS011;20542;49.828;8.746;2022-07-23T15:11:14;6.70;;;4.60;;
34282;SDS011;20542;49.828;8.746;2022-07-23T15:13:40;5.63;;;3.90;;
34282;SDS011;20542;49.828;8.746;2022-07-23T15:16:06;6.83;;;4.43;;
34282;SDS011;20542;49.828;8.746;2022-07-23T15:18:32;6.65;;;4.22;;
34282;SDS011;20542;49.828;8.746;2022-07-23T15:20:58;8.93;;;5.05;;
34282;SDS011;20542;49.828;8.746;2022-07-23T15:23:24;5.97;;;5.07;;
34282;SDS011;20542;49.828;8.746;2022-07-23T15:25:49;5.13;;;4.10;;
34282;SDS011;20542;49.828;8.746;2022-07-23T15:28:15;4.20;;;3.80;;
34282;SDS011;20542;49.828;8.746;2022-07-23T15:30:41;7.37;;;4.17;;
34282;SDS011;20542;49.828;8.746;2022-07-23T15:33:06;7.37;;;4.90;;
34282;SDS011;20542;49.828;8.746;2022-07-23T15:35:32;5.47;;;4.20;;
34282;SDS011;20542;49.828;8.746;2022-07-23T15:37:58;5.87;;;3.87;;
34282;SDS011;20542;49.828;8.746;2022-07-23T15:40:23;6.93;;;3.93;;
34282;SDS011;20542;49.828;8.746;2022-07-23T15:42:50;5.47;;;4.15;;
34282;SDS011;20542;49.828;8.746;2022-07-23T15:45:15;6.25;;;4.32;;